sensor_id;sensor_type;location;lat;lon;timestamp;temperature;humidity
82039;DHT22;71610;42.628;23.378;2024-02-21T00:00:50;21.10;31.10
82039;DHT22;71610;42.628;23.378;2024-02-21T00:03:15;21.10;31.10
82039;DHT22;71610;42.628;23.378;2024-02-21T00:05:41;21.00;31.10
82039;DHT22;71610;42.628;23.378;2024-02-21T00:08:07;21.10;31.10
82039;DHT22;71610;42.628;23.378;2024-02-21T00:10:32;21.10;31.10
82039;DHT22;71610;42.628;23.378;2024-02-21T00:12:58;21.00;31.10
82039;DHT22;71610;42.628;23.378;2024-02-21T00:15:27;21.00;31.00
82039;DHT22;71610;42.628;23.378;2024-02-21T00:17:53;21.00;31.00
82039;DHT22;71610;42.628;23.378;2024-02-21T00:20:19;21.10;31.00
82039;DHT22;71610;42.628;23.378;2024-02-21T00:22:45;21.10;31.00
82039;DHT22;71610;42.628;23.378;2024-02-21T00:25:11;21.10;31.00
82039;DHT22;71610;42.628;23.378;2024-02-21T00:27:37;21.10;32.20
82039;DHT22;71610;42.628;23.378;2024-02-21T00:30:05;21.10;31.00
82039;DHT22;71610;42.628;23.378;2024-02-21T00:32:31;21.00;30.90
82039;DHT22;71610;42.628;23.378;2024-02-21T00:34:59;21.10;31.00
82039;DHT22;71610;42.628;23.378;2024-02-21T00:37:25;21.00;30.90
82039;DHT22;71610;42.628;23.378;2024-02-21T00:39:50;21.00;30.90
82039;DHT22;71610;42.628;23.378;2024-02-21T00:42:16;21.00;30.90
82039;DHT22;71610;42.628;23.378;2024-02-21T00:44:42;21.00;30.90
82039;DHT22;71610;42.628;23.378;2024-02-21T00:47:09;21.00;30.90
82039;DHT22;71610;42.628;23.378;2024-02-21T00:49:35;21.00;31.00
82039;DHT22;71610;42.628;23.378;2024-02-21T00:52:01;21.00;30.90
82039;DHT22;71610;42.628;23.378;2024-02-21T00:54:27;21.00;30.90
82039;DHT22;71610;42.628;23.378;2024-02-21T00:56:53;21.00;30.90
82039;DHT22;71610;42.628;23.378;2024-02-21T00:59:18;21.00;30.90
82039;DHT22;71610;42.628;23.378;2024-02-21T01:01:44;21.00;30.90
82039;DHT22;71610;42.628;23.378;2024-02-21T01:04:10;21.00;30.90
82039;DHT22;71610;42.628;23.378;2024-02-21T01:06:35;21.00;30.90
82039;DHT22;71610;42.628;23.378;2024-02-21T01:09:01;21.00;30.90
82039;DHT22;71610;42.628;23.378;2024-02-21T01:11:27;21.00;30.90
82039;DHT22;71610;42.628;23.378;2024-02-21T01:13:53;21.00;30.90
82039;DHT22;71610;42.628;23.378;2024-02-21T01:16:20;21.00;31.00
82039;DHT22;71610;42.628;23.378;2024-02-21T01:18:46;21.00;30.90
82039;DHT22;71610;42.628;23.378;2024-02-21T01:21:12;21.00;30.90
82039;DHT22;71610;42.628;23.378;2024-02-21T01:23:37;21.00;30.90
82039;DHT22;71610;42.628;23.378;2024-02-21T01:26:04;20.90;30.80
82039;DHT22;71610;42.628;23.378;2024-02-21T01:28:30;21.00;30.90
82039;DHT22;71610;42.628;23.378;2024-02-21T01:30:57;21.00;30.90
82039;DHT22;71610;42.628;23.378;2024-02-21T01:33:22;20.90;30.80
82039;DHT22;71610;42.628;23.378;2024-02-21T01:35:48;20.90;30.80
82039;DHT22;71610;42.628;23.378;2024-02-21T01:38:15;20.90;31.90
82039;DHT22;71610;42.628;23.378;2024-02-21T01:40:41;20.90;30.80
82039;DHT22;71610;42.628;23.378;2024-02-21T01:43:16;20.90;30.80
82039;DHT22;71610;42.628;23.378;2024-02-21T01:45:45;20.90;30.80
82039;DHT22;71610;42.628;23.378;2024-02-21T01:48:12;20.90;30.80
82039;DHT22;71610;42.628;23.378;2024-02-21T01:50:39;20.90;30.80
82039;DHT22;71610;42.628;23.378;2024-02-21T01:53:05;20.90;30.80
82039;DHT22;71610;42.628;23.378;2024-02-21T01:55:31;20.90;30.80
82039;DHT22;71610;42.628;23.378;2024-02-21T01:57:57;20.90;30.80
82039;DHT22;71610;42.628;23.378;2024-02-21T02:00:23;20.90;30.80
82039;DHT22;71610;42.628;23.378;2024-02-21T02:02:49;20.90;30.80
82039;DHT22;71610;42.628;23.378;2024-02-21T02:05:16;20.90;30.80
82039;DHT22;71610;42.628;23.378;2024-02-21T02:07:44;20.90;30.80
82039;DHT22;71610;42.628;23.378;2024-02-21T02:10:10;20.90;30.80
82039;DHT22;71610;42.628;23.378;2024-02-21T02:12:36;20.90;30.80
82039;DHT22;71610;42.628;23.378;2024-02-21T02:15:05;20.90;30.80
82039;DHT22;71610;42.628;23.378;2024-02-21T02:17:31;20.90;30.80
82039;DHT22;71610;42.628;23.378;2024-02-21T02:19:57;20.90;30.80
82039;DHT22;71610;42.628;23.378;2024-02-21T02:22:28;20.90;30.80
82039;DHT22;71610;42.628;23.378;2024-02-21T02:24:54;20.90;30.80
82039;DHT22;71610;42.628;23.378;2024-02-21T02:27:20;20.90;30.80
82039;DHT22;71610;42.628;23.378;2024-02-21T02:29:48;20.90;30.80
82039;DHT22;71610;42.628;23.378;2024-02-21T02:32:14;20.90;30.80
82039;DHT22;71610;42.628;23.378;2024-02-21T02:34:40;20.90;30.80
82039;DHT22;71610;42.628;23.378;2024-02-21T02:37:05;20.90;30.80
82039;DHT22;71610;42.628;23.378;2024-02-21T02:39:31;20.90;30.80
82039;DHT22;71610;42.628;23.378;2024-02-21T02:41:57;20.80;30.80
82039;DHT22;71610;42.628;23.378;2024-02-21T02:44:22;20.80;30.70
82039;DHT22;71610;42.628;23.378;2024-02-21T02:46:48;20.80;30.80
82039;DHT22;71610;42.628;23.378;2024-02-21T02:49:14;20.80;30.80
82039;DHT22;71610;42.628;23.378;2024-02-21T02:51:43;20.80;30.80
82039;DHT22;71610;42.628;23.378;2024-02-21T02:54:09;20.80;30.80
82039;DHT22;71610;42.628;23.378;2024-02-21T02:56:35;20.80;30.70
82039;DHT22;71610;42.628;23.378;2024-02-21T02:59:01;20.80;30.70
82039;DHT22;71610;42.628;23.378;2024-02-21T03:01:26;20.80;30.70
82039;DHT22;71610;42.628;23.378;2024-02-21T03:03:53;20.80;30.80
82039;DHT22;71610;42.628;23.378;2024-02-21T03:06:19;20.80;30.80
82039;DHT22;71610;42.628;23.378;2024-02-21T03:08:45;20.80;30.80
82039;DHT22;71610;42.628;23.378;2024-02-21T03:11:11;20.80;30.80
82039;DHT22;71610;42.628;23.378;2024-02-21T03:13:37;20.90;32.00
82039;DHT22;71610;42.628;23.378;2024-02-21T03:16:03;20.90;30.80
82039;DHT22;71610;42.628;23.378;2024-02-21T03:18:28;20.90;30.80
82039;DHT22;71610;42.628;23.378;2024-02-21T03:20:54;20.90;30.80
82039;DHT22;71610;42.628;23.378;2024-02-21T03:23:20;20.90;30.80
82039;DHT22;71610;42.628;23.378;2024-02-21T03:25:46;20.90;30.80
82039;DHT22;71610;42.628;23.378;2024-02-21T03:28:11;20.90;30.70
82039;DHT22;71610;42.628;23.378;2024-02-21T03:30:37;20.90;30.70
82039;DHT22;71610;42.628;23.378;2024-02-21T03:33:04;21.00;30.70
82039;DHT22;71610;42.628;23.378;2024-02-21T03:35:29;20.90;30.60
82039;DHT22;71610;42.628;23.378;2024-02-21T03:37:55;21.00;30.70
82039;DHT22;71610;42.628;23.378;2024-02-21T03:40:21;21.00;30.60
82039;DHT22;71610;42.628;23.378;2024-02-21T03:42:47;21.00;30.60
82039;DHT22;71610;42.628;23.378;2024-02-21T03:45:12;21.00;30.60
82039;DHT22;71610;42.628;23.378;2024-02-21T03:47:38;21.00;30.60
82039;DHT22;71610;42.628;23.378;2024-02-21T03:50:05;21.10;30.60
82039;DHT22;71610;42.628;23.378;2024-02-21T03:52:31;21.10;30.50
82039;DHT22;71610;42.628;23.378;2024-02-21T03:54:57;21.00;31.60
82039;DHT22;71610;42.628;23.378;2024-02-21T03:57:23;21.10;30.40
82039;DHT22;71610;42.628;23.378;2024-02-21T03:59:52;21.10;30.40
82039;DHT22;71610;42.628;23.378;2024-02-21T04:02:17;21.10;30.40
82039;DHT22;71610;42.628;23.378;2024-02-21T04:04:46;21.10;30.30
82039;DHT22;71610;42.628;23.378;2024-02-21T04:07:14;21.10;30.30
82039;DHT22;71610;42.628;23.378;2024-02-21T04:09:40;21.10;30.30
82039;DHT22;71610;42.628;23.378;2024-02-21T04:12:07;21.10;30.20
82039;DHT22;71610;42.628;23.378;2024-02-21T04:14:33;21.20;30.30
82039;DHT22;71610;42.628;23.378;2024-02-21T04:17:00;21.20;30.30
82039;DHT22;71610;42.628;23.378;2024-02-21T04:19:25;21.20;30.20
82039;DHT22;71610;42.628;23.378;2024-02-21T04:21:51;21.20;30.20
82039;DHT22;71610;42.628;23.378;2024-02-21T04:24:17;21.20;30.20
82039;DHT22;71610;42.628;23.378;2024-02-21T04:26:43;21.20;30.10
82039;DHT22;71610;42.628;23.378;2024-02-21T04:29:09;21.20;30.10
82039;DHT22;71610;42.628;23.378;2024-02-21T04:31:35;21.30;30.20
82039;DHT22;71610;42.628;23.378;2024-02-21T04:34:01;21.20;30.10
82039;DHT22;71610;42.628;23.378;2024-02-21T04:36:28;21.30;30.20
82039;DHT22;71610;42.628;23.378;2024-02-21T04:38:54;21.30;30.10
82039;DHT22;71610;42.628;23.378;2024-02-21T04:41:19;21.30;30.10
82039;DHT22;71610;42.628;23.378;2024-02-21T04:43:48;21.30;30.10
82039;DHT22;71610;42.628;23.378;2024-02-21T04:46:14;21.30;30.00
82039;DHT22;71610;42.628;23.378;2024-02-21T04:48:39;21.30;30.00
82039;DHT22;71610;42.628;23.378;2024-02-21T04:51:05;21.30;30.00
82039;DHT22;71610;42.628;23.378;2024-02-21T04:53:31;21.30;30.00
82039;DHT22;71610;42.628;23.378;2024-02-21T04:55:57;21.30;30.00
82039;DHT22;71610;42.628;23.378;2024-02-21T04:58:22;21.30;30.30
82039;DHT22;71610;42.628;23.378;2024-02-21T05:00:48;21.30;31.20
82039;DHT22;71610;42.628;23.378;2024-02-21T05:03:14;21.30;32.10
82039;DHT22;71610;42.628;23.378;2024-02-21T05:05:39;21.30;30.50
82039;DHT22;71610;42.628;23.378;2024-02-21T05:08:05;21.30;29.30
82039;DHT22;71610;42.628;23.378;2024-02-21T05:10:31;21.20;28.70
82039;DHT22;71610;42.628;23.378;2024-02-21T05:12:57;21.20;29.40
82039;DHT22;71610;42.628;23.378;2024-02-21T05:15:23;21.10;29.50
82039;DHT22;71610;42.628;23.378;2024-02-21T05:17:49;21.10;29.40
82039;DHT22;71610;42.628;23.378;2024-02-21T05:20:15;21.10;29.20
82039;DHT22;71610;42.628;23.378;2024-02-21T05:22:41;21.20;29.30
82039;DHT22;71610;42.628;23.378;2024-02-21T05:25:07;21.20;29.50
82039;DHT22;71610;42.628;23.378;2024-02-21T05:27:33;21.20;29.50
82039;DHT22;71610;42.628;23.378;2024-02-21T05:29:59;21.20;29.60
82039;DHT22;71610;42.628;23.378;2024-02-21T05:32:26;21.20;29.60
82039;DHT22;71610;42.628;23.378;2024-02-21T05:34:52;21.30;29.70
82039;DHT22;71610;42.628;23.378;2024-02-21T05:37:17;21.20;29.80
82039;DHT22;71610;42.628;23.378;2024-02-21T05:39:43;21.20;29.80
82039;DHT22;71610;42.628;23.378;2024-02-21T05:42:09;21.30;29.80
82039;DHT22;71610;42.628;23.378;2024-02-21T05:44:35;21.30;29.80
82039;DHT22;71610;42.628;23.378;2024-02-21T05:47:01;21.30;29.70
82039;DHT22;71610;42.628;23.378;2024-02-21T05:49:27;21.30;29.70
82039;DHT22;71610;42.628;23.378;2024-02-21T05:51:53;21.30;29.80
82039;DHT22;71610;42.628;23.378;2024-02-21T05:54:18;21.40;29.80
82039;DHT22;71610;42.628;23.378;2024-02-21T05:56:45;21.40;29.80
82039;DHT22;71610;42.628;23.378;2024-02-21T05:59:11;21.40;29.70
82039;DHT22;71610;42.628;23.378;2024-02-21T06:01:37;21.40;29.70
82039;DHT22;71610;42.628;23.378;2024-02-21T06:04:03;21.40;29.70
82039;DHT22;71610;42.628;23.378;2024-02-21T06:06:30;21.40;29.70
82039;DHT22;71610;42.628;23.378;2024-02-21T06:08:56;21.50;29.80
82039;DHT22;71610;42.628;23.378;2024-02-21T06:11:22;21.50;29.80
82039;DHT22;71610;42.628;23.378;2024-02-21T06:13:48;21.50;29.90
82039;DHT22;71610;42.628;23.378;2024-02-21T06:16:14;21.50;29.90
82039;DHT22;71610;42.628;23.378;2024-02-21T06:18:39;21.50;29.90
82039;DHT22;71610;42.628;23.378;2024-02-21T06:21:05;21.50;30.00
82039;DHT22;71610;42.628;23.378;2024-02-21T06:23:31;21.50;30.00
82039;DHT22;71610;42.628;23.378;2024-02-21T06:25:57;21.60;30.00
82039;DHT22;71610;42.628;23.378;2024-02-21T06:28:23;21.60;30.10
82039;DHT22;71610;42.628;23.378;2024-02-21T06:30:48;21.60;30.20
82039;DHT22;71610;42.628;23.378;2024-02-21T06:33:14;21.60;30.30
82039;DHT22;71610;42.628;23.378;2024-02-21T06:35:40;21.60;30.30
82039;DHT22;71610;42.628;23.378;2024-02-21T06:38:08;21.60;30.50
82039;DHT22;71610;42.628;23.378;2024-02-21T06:40:34;21.60;30.60
82039;DHT22;71610;42.628;23.378;2024-02-21T06:43:04;21.70;30.70
82039;DHT22;71610;42.628;23.378;2024-02-21T06:45:30;21.60;30.60
82039;DHT22;71610;42.628;23.378;2024-02-21T06:47:56;21.60;30.70
82039;DHT22;71610;42.628;23.378;2024-02-21T06:50:21;21.70;30.90
82039;DHT22;71610;42.628;23.378;2024-02-21T06:52:47;21.70;31.00
82039;DHT22;71610;42.628;23.378;2024-02-21T06:55:13;21.70;31.40
82039;DHT22;71610;42.628;23.378;2024-02-21T06:57:39;21.70;32.20
82039;DHT22;71610;42.628;23.378;2024-02-21T07:00:06;21.70;32.30
82039;DHT22;71610;42.628;23.378;2024-02-21T07:02:35;21.80;32.30
82039;DHT22;71610;42.628;23.378;2024-02-21T07:05:00;21.80;32.20
82039;DHT22;71610;42.628;23.378;2024-02-21T07:07:26;21.80;32.30
82039;DHT22;71610;42.628;23.378;2024-02-21T07:09:52;21.90;32.90
82039;DHT22;71610;42.628;23.378;2024-02-21T07:12:20;21.90;33.00
82039;DHT22;71610;42.628;23.378;2024-02-21T07:14:45;21.90;33.20
82039;DHT22;71610;42.628;23.378;2024-02-21T07:17:11;21.90;33.30
82039;DHT22;71610;42.628;23.378;2024-02-21T07:19:37;22.00;33.40
82039;DHT22;71610;42.628;23.378;2024-02-21T07:22:03;22.00;33.60
82039;DHT22;71610;42.628;23.378;2024-02-21T07:24:29;22.00;33.60
82039;DHT22;71610;42.628;23.378;2024-02-21T07:26:54;22.00;33.70
82039;DHT22;71610;42.628;23.378;2024-02-21T07:29:21;22.00;33.70
82039;DHT22;71610;42.628;23.378;2024-02-21T07:31:48;22.10;33.80
82039;DHT22;71610;42.628;23.378;2024-02-21T07:34:14;22.00;33.90
82039;DHT22;71610;42.628;23.378;2024-02-21T07:36:40;22.10;33.90
82039;DHT22;71610;42.628;23.378;2024-02-21T07:39:08;22.10;34.10
82039;DHT22;71610;42.628;23.378;2024-02-21T07:41:33;22.10;34.10
82039;DHT22;71610;42.628;23.378;2024-02-21T07:44:00;22.10;34.10
82039;DHT22;71610;42.628;23.378;2024-02-21T07:46:25;22.10;34.30
82039;DHT22;71610;42.628;23.378;2024-02-21T07:48:51;22.10;34.80
82039;DHT22;71610;42.628;23.378;2024-02-21T07:51:17;22.10;34.80
82039;DHT22;71610;42.628;23.378;2024-02-21T07:53:44;22.10;34.90
82039;DHT22;71610;42.628;23.378;2024-02-21T07:56:14;22.10;35.00
82039;DHT22;71610;42.628;23.378;2024-02-21T07:58:43;22.10;35.50
82039;DHT22;71610;42.628;23.378;2024-02-21T08:01:09;22.20;35.80
82039;DHT22;71610;42.628;23.378;2024-02-21T08:03:35;22.20;36.00
82039;DHT22;71610;42.628;23.378;2024-02-21T08:06:02;22.20;36.10
82039;DHT22;71610;42.628;23.378;2024-02-21T08:08:28;22.30;35.90
82039;DHT22;71610;42.628;23.378;2024-02-21T08:10:54;22.30;35.50
82039;DHT22;71610;42.628;23.378;2024-02-21T08:13:20;22.30;35.30
82039;DHT22;71610;42.628;23.378;2024-02-21T08:15:46;22.30;35.30
82039;DHT22;71610;42.628;23.378;2024-02-21T08:18:12;22.30;35.20
82039;DHT22;71610;42.628;23.378;2024-02-21T08:20:37;22.30;35.00
82039;DHT22;71610;42.628;23.378;2024-02-21T08:23:03;22.30;34.80
82039;DHT22;71610;42.628;23.378;2024-02-21T08:25:29;22.30;34.50
82039;DHT22;71610;42.628;23.378;2024-02-21T08:27:58;22.30;34.40
82039;DHT22;71610;42.628;23.378;2024-02-21T08:30:24;22.30;34.60
82039;DHT22;71610;42.628;23.378;2024-02-21T08:32:50;22.30;35.10
82039;DHT22;71610;42.628;23.378;2024-02-21T08:35:16;22.30;35.50
82039;DHT22;71610;42.628;23.378;2024-02-21T08:37:45;22.30;35.40
82039;DHT22;71610;42.628;23.378;2024-02-21T08:40:13;22.30;35.40
82039;DHT22;71610;42.628;23.378;2024-02-21T08:42:43;22.40;35.70
82039;DHT22;71610;42.628;23.378;2024-02-21T08:45:09;22.40;35.90
82039;DHT22;71610;42.628;23.378;2024-02-21T08:47:35;22.40;35.90
82039;DHT22;71610;42.628;23.378;2024-02-21T08:50:04;22.40;35.70
82039;DHT22;71610;42.628;23.378;2024-02-21T08:52:31;22.40;35.50
82039;DHT22;71610;42.628;23.378;2024-02-21T08:54:57;22.40;35.80
82039;DHT22;71610;42.628;23.378;2024-02-21T08:57:23;22.40;35.80
82039;DHT22;71610;42.628;23.378;2024-02-21T08:59:48;22.50;35.90
82039;DHT22;71610;42.628;23.378;2024-02-21T09:02:14;22.40;36.10
82039;DHT22;71610;42.628;23.378;2024-02-21T09:04:43;22.50;36.10
82039;DHT22;71610;42.628;23.378;2024-02-21T09:07:12;22.50;36.10
82039;DHT22;71610;42.628;23.378;2024-02-21T09:09:37;22.40;35.90
82039;DHT22;71610;42.628;23.378;2024-02-21T09:12:08;22.50;35.70
82039;DHT22;71610;42.628;23.378;2024-02-21T09:14:37;22.50;35.60
82039;DHT22;71610;42.628;23.378;2024-02-21T09:17:06;22.50;35.70
82039;DHT22;71610;42.628;23.378;2024-02-21T09:19:32;22.50;35.50
82039;DHT22;71610;42.628;23.378;2024-02-21T09:21:58;22.50;35.30
82039;DHT22;71610;42.628;23.378;2024-02-21T09:24:24;22.50;35.10
82039;DHT22;71610;42.628;23.378;2024-02-21T09:26:49;22.50;35.30
82039;DHT22;71610;42.628;23.378;2024-02-21T09:29:15;22.50;35.40
82039;DHT22;71610;42.628;23.378;2024-02-21T09:31:42;22.50;35.60
82039;DHT22;71610;42.628;23.378;2024-02-21T09:34:07;22.50;35.80
82039;DHT22;71610;42.628;23.378;2024-02-21T09:36:33;22.50;36.00
82039;DHT22;71610;42.628;23.378;2024-02-21T09:38:59;22.50;36.50
82039;DHT22;71610;42.628;23.378;2024-02-21T09:41:27;22.50;37.20
82039;DHT22;71610;42.628;23.378;2024-02-21T09:43:53;22.60;38.00
82039;DHT22;71610;42.628;23.378;2024-02-21T09:46:24;22.60;39.70
82039;DHT22;71610;42.628;23.378;2024-02-21T09:51:30;22.70;39.10
82039;DHT22;71610;42.628;23.378;2024-02-21T09:53:58;22.70;39.10
82039;DHT22;71610;42.628;23.378;2024-02-21T09:56:24;22.70;38.80
82039;DHT22;71610;42.628;23.378;2024-02-21T09:58:50;22.70;38.40
82039;DHT22;71610;42.628;23.378;2024-02-21T10:01:16;22.70;38.20
82039;DHT22;71610;42.628;23.378;2024-02-21T10:03:42;22.70;38.30
82039;DHT22;71610;42.628;23.378;2024-02-21T10:06:10;22.70;38.20
82039;DHT22;71610;42.628;23.378;2024-02-21T10:08:35;22.70;38.00
82039;DHT22;71610;42.628;23.378;2024-02-21T10:11:01;22.70;37.80
82039;DHT22;71610;42.628;23.378;2024-02-21T10:13:31;22.70;37.50
82039;DHT22;71610;42.628;23.378;2024-02-21T10:16:07;22.70;37.20
82039;DHT22;71610;42.628;23.378;2024-02-21T10:18:33;22.70;37.20
82039;DHT22;71610;42.628;23.378;2024-02-21T10:21:06;22.70;37.00
82039;DHT22;71610;42.628;23.378;2024-02-21T10:23:46;22.70;37.00
82039;DHT22;71610;42.628;23.378;2024-02-21T10:26:12;22.60;37.00
82039;DHT22;71610;42.628;23.378;2024-02-21T10:28:38;22.70;37.00
82039;DHT22;71610;42.628;23.378;2024-02-21T10:31:22;22.60;37.10
82039;DHT22;71610;42.628;23.378;2024-02-21T10:33:54;22.70;37.20
82039;DHT22;71610;42.628;23.378;2024-02-21T10:36:20;22.70;37.00
82039;DHT22;71610;42.628;23.378;2024-02-21T10:38:46;22.60;36.80
82039;DHT22;71610;42.628;23.378;2024-02-21T10:41:14;22.60;36.70
82039;DHT22;71610;42.628;23.378;2024-02-21T10:43:49;22.60;37.10
82039;DHT22;71610;42.628;23.378;2024-02-21T10:46:19;22.60;37.30
82039;DHT22;71610;42.628;23.378;2024-02-21T10:48:45;22.60;37.30
82039;DHT22;71610;42.628;23.378;2024-02-21T10:51:16;22.60;37.20
82039;DHT22;71610;42.628;23.378;2024-02-21T10:56:31;22.60;36.60
82039;DHT22;71610;42.628;23.378;2024-02-21T10:59:01;22.60;36.20
82039;DHT22;71610;42.628;23.378;2024-02-21T11:01:28;22.50;36.00
82039;DHT22;71610;42.628;23.378;2024-02-21T11:03:58;22.50;35.90
82039;DHT22;71610;42.628;23.378;2024-02-21T11:06:26;22.50;35.90
82039;DHT22;71610;42.628;23.378;2024-02-21T11:09:06;22.50;36.00
82039;DHT22;71610;42.628;23.378;2024-02-21T11:11:37;22.50;36.10
82039;DHT22;71610;42.628;23.378;2024-02-21T11:14:10;22.50;36.10
82039;DHT22;71610;42.628;23.378;2024-02-21T11:16:41;22.50;36.10
82039;DHT22;71610;42.628;23.378;2024-02-21T11:19:28;22.50;36.10
82039;DHT22;71610;42.628;23.378;2024-02-21T11:21:55;22.50;36.10
82039;DHT22;71610;42.628;23.378;2024-02-21T11:24:26;22.50;36.10
82039;DHT22;71610;42.628;23.378;2024-02-21T11:26:54;22.50;36.00
82039;DHT22;71610;42.628;23.378;2024-02-21T11:29:24;22.50;35.80
82039;DHT22;71610;42.628;23.378;2024-02-21T11:31:55;22.50;35.90
82039;DHT22;71610;42.628;23.378;2024-02-21T11:34:21;22.50;35.90
82039;DHT22;71610;42.628;23.378;2024-02-21T11:36:51;22.50;35.80
82039;DHT22;71610;42.628;23.378;2024-02-21T11:39:25;22.50;35.90
82039;DHT22;71610;42.628;23.378;2024-02-21T11:42:04;22.50;35.80
82039;DHT22;71610;42.628;23.378;2024-02-21T11:44:31;22.50;35.80
82039;DHT22;71610;42.628;23.378;2024-02-21T11:46:57;22.50;35.80
82039;DHT22;71610;42.628;23.378;2024-02-21T11:49:28;22.50;35.90
82039;DHT22;71610;42.628;23.378;2024-02-21T11:52:01;22.50;35.80
82039;DHT22;71610;42.628;23.378;2024-02-21T11:54:30;22.50;35.80
82039;DHT22;71610;42.628;23.378;2024-02-21T11:56:56;22.50;35.70
82039;DHT22;71610;42.628;23.378;2024-02-21T11:59:22;22.50;35.70
82039;DHT22;71610;42.628;23.378;2024-02-21T12:01:50;22.50;35.80
82039;DHT22;71610;42.628;23.378;2024-02-21T12:04:18;22.50;35.60
82039;DHT22;71610;42.628;23.378;2024-02-21T12:06:45;22.40;35.60
82039;DHT22;71610;42.628;23.378;2024-02-21T12:09:17;22.40;35.40
82039;DHT22;71610;42.628;23.378;2024-02-21T12:11:56;22.40;35.30
82039;DHT22;71610;42.628;23.378;2024-02-21T12:14:22;22.40;35.40
82039;DHT22;71610;42.628;23.378;2024-02-21T12:16:50;22.40;35.50
82039;DHT22;71610;42.628;23.378;2024-02-21T12:19:16;22.40;35.50
82039;DHT22;71610;42.628;23.378;2024-02-21T12:21:42;22.40;35.40
82039;DHT22;71610;42.628;23.378;2024-02-21T12:24:17;22.40;35.70
82039;DHT22;71610;42.628;23.378;2024-02-21T12:26:46;22.50;35.80
82039;DHT22;71610;42.628;23.378;2024-02-21T12:29:12;22.40;35.70
82039;DHT22;71610;42.628;23.378;2024-02-21T12:31:38;22.40;35.70
82039;DHT22;71610;42.628;23.378;2024-02-21T12:34:04;22.40;35.60
82039;DHT22;71610;42.628;23.378;2024-02-21T12:36:31;22.40;35.50
82039;DHT22;71610;42.628;23.378;2024-02-21T12:38:57;22.50;35.40
82039;DHT22;71610;42.628;23.378;2024-02-21T12:41:23;22.40;35.40
82039;DHT22;71610;42.628;23.378;2024-02-21T12:43:51;22.40;35.30
82039;DHT22;71610;42.628;23.378;2024-02-21T12:46:16;22.40;35.30
82039;DHT22;71610;42.628;23.378;2024-02-21T12:48:42;22.40;35.30
82039;DHT22;71610;42.628;23.378;2024-02-21T12:51:08;22.40;35.20
82039;DHT22;71610;42.628;23.378;2024-02-21T12:53:34;22.40;35.50
82039;DHT22;71610;42.628;23.378;2024-02-21T12:56:00;22.40;35.70
82039;DHT22;71610;42.628;23.378;2024-02-21T12:58:25;22.40;35.70
82039;DHT22;71610;42.628;23.378;2024-02-21T13:00:51;22.40;35.40
82039;DHT22;71610;42.628;23.378;2024-02-21T13:03:17;22.40;34.80
82039;DHT22;71610;42.628;23.378;2024-02-21T13:05:43;22.40;34.90
82039;DHT22;71610;42.628;23.378;2024-02-21T13:08:09;22.40;34.70
82039;DHT22;71610;42.628;23.378;2024-02-21T13:10:35;22.40;31.90
82039;DHT22;71610;42.628;23.378;2024-02-21T13:13:04;22.30;30.00
82039;DHT22;71610;42.628;23.378;2024-02-21T13:15:29;22.40;30.00
82039;DHT22;71610;42.628;23.378;2024-02-21T13:17:58;22.30;30.00
82039;DHT22;71610;42.628;23.378;2024-02-21T13:20:25;22.30;30.20
82039;DHT22;71610;42.628;23.378;2024-02-21T13:22:52;22.30;30.20
82039;DHT22;71610;42.628;23.378;2024-02-21T13:25:17;22.30;30.20
82039;DHT22;71610;42.628;23.378;2024-02-21T13:27:47;22.30;30.30
82039;DHT22;71610;42.628;23.378;2024-02-21T13:30:14;22.30;30.00
82039;DHT22;71610;42.628;23.378;2024-02-21T13:32:42;22.30;30.20
82039;DHT22;71610;42.628;23.378;2024-02-21T13:35:09;22.30;30.20
82039;DHT22;71610;42.628;23.378;2024-02-21T13:37:40;22.30;30.10
82039;DHT22;71610;42.628;23.378;2024-02-21T13:40:06;22.30;30.60
82039;DHT22;71610;42.628;23.378;2024-02-21T13:42:35;22.30;31.10
82039;DHT22;71610;42.628;23.378;2024-02-21T13:45:00;22.40;31.20
82039;DHT22;71610;42.628;23.378;2024-02-21T13:47:27;22.40;31.50
82039;DHT22;71610;42.628;23.378;2024-02-21T13:49:53;22.40;31.50
82039;DHT22;71610;42.628;23.378;2024-02-21T13:52:18;22.40;31.60
82039;DHT22;71610;42.628;23.378;2024-02-21T13:54:47;22.50;31.70
82039;DHT22;71610;42.628;23.378;2024-02-21T13:57:13;22.60;31.80
82039;DHT22;71610;42.628;23.378;2024-02-21T13:59:40;22.80;31.50
82039;DHT22;71610;42.628;23.378;2024-02-21T14:02:06;23.00;31.30
82039;DHT22;71610;42.628;23.378;2024-02-21T14:04:35;23.30;31.20
82039;DHT22;71610;42.628;23.378;2024-02-21T14:07:01;23.40;31.00
82039;DHT22;71610;42.628;23.378;2024-02-21T14:09:27;23.60;31.00
82039;DHT22;71610;42.628;23.378;2024-02-21T14:11:55;23.70;30.90
82039;DHT22;71610;42.628;23.378;2024-02-21T14:14:21;23.90;30.80
82039;DHT22;71610;42.628;23.378;2024-02-21T14:16:46;24.00;30.30
82039;DHT22;71610;42.628;23.378;2024-02-21T14:19:15;24.10;30.20
82039;DHT22;71610;42.628;23.378;2024-02-21T14:21:41;24.20;30.40
82039;DHT22;71610;42.628;23.378;2024-02-21T14:24:06;24.30;30.00
82039;DHT22;71610;42.628;23.378;2024-02-21T14:26:32;24.30;29.90
82039;DHT22;71610;42.628;23.378;2024-02-21T14:28:58;24.40;29.80
82039;DHT22;71610;42.628;23.378;2024-02-21T14:31:24;24.50;29.90
82039;DHT22;71610;42.628;23.378;2024-02-21T14:33:53;24.60;29.70
82039;DHT22;71610;42.628;23.378;2024-02-21T14:36:19;24.70;29.50
82039;DHT22;71610;42.628;23.378;2024-02-21T14:38:44;24.80;29.40
82039;DHT22;71610;42.628;23.378;2024-02-21T14:41:10;24.80;29.50
82039;DHT22;71610;42.628;23.378;2024-02-21T14:43:39;24.90;29.60
82039;DHT22;71610;42.628;23.378;2024-02-21T14:46:05;24.90;29.50
82039;DHT22;71610;42.628;23.378;2024-02-21T14:48:34;24.90;29.40
82039;DHT22;71610;42.628;23.378;2024-02-21T14:51:00;24.80;29.40
82039;DHT22;71610;42.628;23.378;2024-02-21T14:53:26;24.60;29.50
82039;DHT22;71610;42.628;23.378;2024-02-21T14:55:51;24.50;29.60
82039;DHT22;71610;42.628;23.378;2024-02-21T14:58:17;24.40;29.70
82039;DHT22;71610;42.628;23.378;2024-02-21T15:00:45;24.30;29.80
82039;DHT22;71610;42.628;23.378;2024-02-21T15:03:12;24.20;29.90
82039;DHT22;71610;42.628;23.378;2024-02-21T15:05:41;24.10;29.90
82039;DHT22;71610;42.628;23.378;2024-02-21T15:08:07;24.00;30.00
82039;DHT22;71610;42.628;23.378;2024-02-21T15:10:34;23.90;30.10
82039;DHT22;71610;42.628;23.378;2024-02-21T15:13:00;23.90;30.20
82039;DHT22;71610;42.628;23.378;2024-02-21T15:15:26;23.80;30.50
82039;DHT22;71610;42.628;23.378;2024-02-21T15:17:52;23.70;30.80